Palo, Minnesota
Current Conditions -  °F | °C
As of 7:51 AM on Thursday 23 Oct 2014 (Local Time) from KEVM Reporting Station
Overcast Overcast  
Wind Chill: 42°   Ceiling: 500
Heat Index: 45°   Visibility: 7mi
Dew Point: 45°   Wind: 5mph
Humidity: 100%   Direction: 180°S
Pressure: 29.95"   Gusts: NA
Location:  47.4622°N, 92.1946°W
Report Text: KEVM 231251Z AUTO 18004KT 7SM OVC005 07/07 A2995 RMK AO2 P0001
Loading
Personal Weather Stations






























Interactive Weather Map
Tropical Storm Tracking
New forecast layout! Learn more

10-Day Weather Forecast

Advertisements
Track Severe Weather on mobile